Canyon Lake, Texas
Current Conditions -  °F | °C
As of 8:51 AM on Monday 24 Nov 2014 (Local Time) from KBAZ Reporting Station
Clear Clear  
Wind Chill: 57°   Ceiling: Unl
Heat Index: 57°   Visibility: 10mi
Dew Point: 36°   Wind: 12mph
Humidity: 45%   Direction: 350°N
Pressure: 30.07"   Gusts: NA
Location:  29.84°N, 98.27°W
Report Text: KBAZ 241451Z 35010KT 10SM CLR 14/02 A3007 RMK AO2 SLP180 T01390022 52037 $
Loading
Personal Weather Stations






























Interactive Weather Map New forecast layout! Learn more

10-Day Weather Forecast

Advertisements
Track Severe Weather on mobile